sensor_id;sensor_type;location;lat;lon;timestamp;P1;P2;P0
74880;PMS5003;63427;49.654;6.596;2024-02-21T00:06:20;13;12;
74880;PMS5003;63427;49.654;6.596;2024-02-21T00:08:46;13;13;
74880;PMS5003;63427;49.654;6.596;2024-02-21T00:16:02;14;14;
74880;PMS5003;63427;49.654;6.596;2024-02-21T00:18:27;14;13;
74880;PMS5003;63427;49.654;6.596;2024-02-21T00:20:53;13;13;
74880;PMS5003;63427;49.654;6.596;2024-02-21T00:25:44;13;13;
74880;PMS5003;63427;49.654;6.596;2024-02-21T00:28:10;14;14;
74880;PMS5003;63427;49.654;6.596;2024-02-21T00:33:01;12;12;
74880;PMS5003;63427;49.654;6.596;2024-02-21T00:35:26;12;12;
74880;PMS5003;63427;49.654;6.596;2024-02-21T00:37:51;16;15;
74880;PMS5003;63427;49.654;6.596;2024-02-21T00:40:17;16;15;
74880;PMS5003;63427;49.654;6.596;2024-02-21T00:47:33;13;13;
74880;PMS5003;63427;49.654;6.596;2024-02-21T00:49:58;13;13;
74880;PMS5003;63427;49.654;6.596;2024-02-21T00:54:50;14;13;
74880;PMS5003;63427;49.654;6.596;2024-02-21T00:57:15;14;13;
74880;PMS5003;63427;49.654;6.596;2024-02-21T01:04:32;13;13;
74880;PMS5003;63427;49.654;6.596;2024-02-21T01:33:37;18;18;
74880;PMS5003;63427;49.654;6.596;2024-02-21T01:36:03;13;13;
74880;PMS5003;63427;49.654;6.596;2024-02-21T01:38:28;17;16;
74880;PMS5003;63427;49.654;6.596;2024-02-21T01:40:53;16;16;
74880;PMS5003;63427;49.654;6.596;2024-02-21T01:43:20;18;16;
74880;PMS5003;63427;49.654;6.596;2024-02-21T01:45:45;15;15;
74880;PMS5003;63427;49.654;6.596;2024-02-21T01:48:09;18;15;
74880;PMS5003;63427;49.654;6.596;2024-02-21T01:50:34;15;14;
74880;PMS5003;63427;49.654;6.596;2024-02-21T01:53:00;15;14;
74880;PMS5003;63427;49.654;6.596;2024-02-21T01:55:26;15;14;
74880;PMS5003;63427;49.654;6.596;2024-02-21T01:57:52;15;14;
74880;PMS5003;63427;49.654;6.596;2024-02-21T02:00:17;18;18;
74880;PMS5003;63427;49.654;6.596;2024-02-21T02:41:30;14;14;
74880;PMS5003;63427;49.654;6.596;2024-02-21T02:43:55;15;15;
74880;PMS5003;63427;49.654;6.596;2024-02-21T02:46:21;15;14;
74880;PMS5003;63427;49.654;6.596;2024-02-21T02:48:47;15;14;
74880;PMS5003;63427;49.654;6.596;2024-02-21T02:51:13;18;17;
74880;PMS5003;63427;49.654;6.596;2024-02-21T02:53:37;19;15;
74880;PMS5003;63427;49.654;6.596;2024-02-21T02:56:03;13;13;
74880;PMS5003;63427;49.654;6.596;2024-02-21T02:58:28;18;15;
74880;PMS5003;63427;49.654;6.596;2024-02-21T03:00:54;12;12;
74880;PMS5003;63427;49.654;6.596;2024-02-21T03:03:19;17;16;
74880;PMS5003;63427;49.654;6.596;2024-02-21T03:05:44;15;13;
74880;PMS5003;63427;49.654;6.596;2024-02-21T03:08:10;20;15;
74880;PMS5003;63427;49.654;6.596;2024-02-21T03:10:36;13;12;
74880;PMS5003;63427;49.654;6.596;2024-02-21T03:13:02;13;12;
74880;PMS5003;63427;49.654;6.596;2024-02-21T03:15:26;16;16;
74880;PMS5003;63427;49.654;6.596;2024-02-21T03:17:51;12;12;
74880;PMS5003;63427;49.654;6.596;2024-02-21T03:25:08;13;13;
74880;PMS5003;63427;49.654;6.596;2024-02-21T03:29:58;12;12;
74880;PMS5003;63427;49.654;6.596;2024-02-21T03:32:24;12;11;
74880;PMS5003;63427;49.654;6.596;2024-02-21T03:34:48;15;14;
74880;PMS5003;63427;49.654;6.596;2024-02-21T03:37:13;14;13;
74880;PMS5003;63427;49.654;6.596;2024-02-21T03:39:39;13;12;
74880;PMS5003;63427;49.654;6.596;2024-02-21T03:42:05;13;13;
74880;PMS5003;63427;49.654;6.596;2024-02-21T03:44:36;12;12;
74880;PMS5003;63427;49.654;6.596;2024-02-21T03:46:56;16;15;
74880;PMS5003;63427;49.654;6.596;2024-02-21T05:55:27;13;11;
74880;PMS5003;63427;49.654;6.596;2024-02-21T05:57:53;14;12;
74880;PMS5003;63427;49.654;6.596;2024-02-21T06:00:19;10;10;
74880;PMS5003;63427;49.654;6.596;2024-02-21T06:02:44;8;8;
74880;PMS5003;63427;49.654;6.596;2024-02-21T06:05:09;14;14;
74880;PMS5003;63427;49.654;6.596;2024-02-21T06:07:35;11;10;
74880;PMS5003;63427;49.654;6.596;2024-02-21T06:10:01;12;12;
74880;PMS5003;63427;49.654;6.596;2024-02-21T06:12:26;10;10;
74880;PMS5003;63427;49.654;6.596;2024-02-21T06:14:52;12;11;
74880;PMS5003;63427;49.654;6.596;2024-02-21T06:17:17;10;10;
74880;PMS5003;63427;49.654;6.596;2024-02-21T06:19:43;12;12;
74880;PMS5003;63427;49.654;6.596;2024-02-21T06:22:08;12;12;
74880;PMS5003;63427;49.654;6.596;2024-02-21T06:27:06;14;13;
74880;PMS5003;63427;49.654;6.596;2024-02-21T06:29:25;15;13;
74880;PMS5003;63427;49.654;6.596;2024-02-21T06:31:50;12;11;
74880;PMS5003;63427;49.654;6.596;2024-02-21T06:34:17;9;9;
74880;PMS5003;63427;49.654;6.596;2024-02-21T06:36:55;13;11;
74880;PMS5003;63427;49.654;6.596;2024-02-21T06:39:07;10;10;
74880;PMS5003;63427;49.654;6.596;2024-02-21T06:53:46;10;9;
74880;PMS5003;63427;49.654;6.596;2024-02-21T06:56:06;11;9;
74880;PMS5003;63427;49.654;6.596;2024-02-21T06:58:31;12;12;
74880;PMS5003;63427;49.654;6.596;2024-02-21T07:00:57;10;10;
74880;PMS5003;63427;49.654;6.596;2024-02-21T07:03:22;8;8;
74880;PMS5003;63427;49.654;6.596;2024-02-21T07:05:49;10;10;
74880;PMS5003;63427;49.654;6.596;2024-02-21T07:10:39;12;12;
74880;PMS5003;63427;49.654;6.596;2024-02-21T07:15:30;9;8;
74880;PMS5003;63427;49.654;6.596;2024-02-21T07:17:56;11;11;
74880;PMS5003;63427;49.654;6.596;2024-02-21T07:20:21;12;12;
74880;PMS5003;63427;49.654;6.596;2024-02-21T07:22:52;12;9;
74880;PMS5003;63427;49.654;6.596;2024-02-21T07:25:18;10;10;
74880;PMS5003;63427;49.654;6.596;2024-02-21T07:27:38;12;12;
74880;PMS5003;63427;49.654;6.596;2024-02-21T07:30:09;12;10;
74880;PMS5003;63427;49.654;6.596;2024-02-21T07:32:30;13;12;
74880;PMS5003;63427;49.654;6.596;2024-02-21T07:34:56;11;10;
74880;PMS5003;63427;49.654;6.596;2024-02-21T07:37:21;14;13;
74880;PMS5003;63427;49.654;6.596;2024-02-21T07:39:47;9;9;
74880;PMS5003;63427;49.654;6.596;2024-02-21T07:44:41;12;12;
74880;PMS5003;63427;49.654;6.596;2024-02-21T07:47:03;10;10;
74880;PMS5003;63427;49.654;6.596;2024-02-21T07:49:29;15;13;
74880;PMS5003;63427;49.654;6.596;2024-02-21T07:51:55;11;9;
74880;PMS5003;63427;49.654;6.596;2024-02-21T07:54:20;14;13;
74880;PMS5003;63427;49.654;6.596;2024-02-21T07:56:51;12;12;
74880;PMS5003;63427;49.654;6.596;2024-02-21T08:30:42;7;7;
74880;PMS5003;63427;49.654;6.596;2024-02-21T08:33:07;11;11;
74880;PMS5003;63427;49.654;6.596;2024-02-21T08:35:33;11;10;
74880;PMS5003;63427;49.654;6.596;2024-02-21T12:04:00;5;5;
74880;PMS5003;63427;49.654;6.596;2024-02-21T12:08:51;8;7;
74880;PMS5003;63427;49.654;6.596;2024-02-21T12:11:18;7;7;
74880;PMS5003;63427;49.654;6.596;2024-02-21T12:13:42;11;10;
74880;PMS5003;63427;49.654;6.596;2024-02-21T12:16:08;6;6;
74880;PMS5003;63427;49.654;6.596;2024-02-21T15:34:49;12;11;
74880;PMS5003;63427;49.654;6.596;2024-02-21T15:37:14;9;9;
74880;PMS5003;63427;49.654;6.596;2024-02-21T15:39:39;10;10;
74880;PMS5003;63427;49.654;6.596;2024-02-21T15:42:05;12;11;
74880;PMS5003;63427;49.654;6.596;2024-02-21T15:44:30;12;11;
74880;PMS5003;63427;49.654;6.596;2024-02-21T15:46:55;12;12;
74880;PMS5003;63427;49.654;6.596;2024-02-21T15:49:21;11;11;
74880;PMS5003;63427;49.654;6.596;2024-02-21T15:51:47;11;10;
74880;PMS5003;63427;49.654;6.596;2024-02-21T15:54:12;14;14;
74880;PMS5003;63427;49.654;6.596;2024-02-21T15:56:37;10;10;
74880;PMS5003;63427;49.654;6.596;2024-02-21T15:59:03;10;10;
74880;PMS5003;63427;49.654;6.596;2024-02-21T16:01:28;10;9;
74880;PMS5003;63427;49.654;6.596;2024-02-21T16:03:53;10;10;
74880;PMS5003;63427;49.654;6.596;2024-02-21T16:06:19;12;12;
74880;PMS5003;63427;49.654;6.596;2024-02-21T16:08:44;11;11;
74880;PMS5003;63427;49.654;6.596;2024-02-21T16:11:10;10;10;
74880;PMS5003;63427;49.654;6.596;2024-02-21T16:13:35;11;11;
74880;PMS5003;63427;49.654;6.596;2024-02-21T16:16:04;8;8;
74880;PMS5003;63427;49.654;6.596;2024-02-21T16:18:26;11;10;
74880;PMS5003;63427;49.654;6.596;2024-02-21T16:20:51;11;11;
74880;PMS5003;63427;49.654;6.596;2024-02-21T16:23:17;11;11;
74880;PMS5003;63427;49.654;6.596;2024-02-21T16:40:15;10;9;
74880;PMS5003;63427;49.654;6.596;2024-02-21T16:42:41;10;9;
74880;PMS5003;63427;49.654;6.596;2024-02-21T16:45:06;10;10;
74880;PMS5003;63427;49.654;6.596;2024-02-21T16:47:31;9;9;
74880;PMS5003;63427;49.654;6.596;2024-02-21T16:49:57;11;11;
74880;PMS5003;63427;49.654;6.596;2024-02-21T16:52:22;9;9;
74880;PMS5003;63427;49.654;6.596;2024-02-21T16:54:48;12;11;
74880;PMS5003;63427;49.654;6.596;2024-02-21T20:13:39;14;14;
74880;PMS5003;63427;49.654;6.596;2024-02-21T20:16:05;11;11;
74880;PMS5003;63427;49.654;6.596;2024-02-21T20:18:30;12;12;
74880;PMS5003;63427;49.654;6.596;2024-02-21T20:20:56;13;13;
74880;PMS5003;63427;49.654;6.596;2024-02-21T20:23:22;13;13;
74880;PMS5003;63427;49.654;6.596;2024-02-21T20:25:47;12;12;
74880;PMS5003;63427;49.654;6.596;2024-02-21T20:28:13;11;11;
74880;PMS5003;63427;49.654;6.596;2024-02-21T20:30:38;12;11;
74880;PMS5003;63427;49.654;6.596;2024-02-21T20:33:04;12;11;
74880;PMS5003;63427;49.654;6.596;2024-02-21T20:35:31;10;10;
74880;PMS5003;63427;49.654;6.596;2024-02-21T20:37:55;11;11;
74880;PMS5003;63427;49.654;6.596;2024-02-21T20:40:21;9;9;
74880;PMS5003;63427;49.654;6.596;2024-02-21T20:42:46;12;12;
74880;PMS5003;63427;49.654;6.596;2024-02-21T20:45:12;13;12;
74880;PMS5003;63427;49.654;6.596;2024-02-21T20:47:37;11;11;
74880;PMS5003;63427;49.654;6.596;2024-02-21T20:50:03;10;10;
74880;PMS5003;63427;49.654;6.596;2024-02-21T20:52:28;10;10;
74880;PMS5003;63427;49.654;6.596;2024-02-21T20:54:54;9;8;
74880;PMS5003;63427;49.654;6.596;2024-02-21T20:57:19;10;9;
74880;PMS5003;63427;49.654;6.596;2024-02-21T20:59:45;10;9;
74880;PMS5003;63427;49.654;6.596;2024-02-21T21:02:11;9;9;
74880;PMS5003;63427;49.654;6.596;2024-02-21T21:04:36;9;9;
74880;PMS5003;63427;49.654;6.596;2024-02-21T21:07:02;11;8;
74880;PMS5003;63427;49.654;6.596;2024-02-21T21:09:28;14;13;
74880;PMS5003;63427;49.654;6.596;2024-02-21T21:11:53;9;8;
74880;PMS5003;63427;49.654;6.596;2024-02-21T21:14:19;8;7;
74880;PMS5003;63427;49.654;6.596;2024-02-21T21:16:44;8;8;
74880;PMS5003;63427;49.654;6.596;2024-02-21T21:24:01;10;9;
74880;PMS5003;63427;49.654;6.596;2024-02-21T21:26:27;10;8;
74880;PMS5003;63427;49.654;6.596;2024-02-21T21:28:52;8;8;
74880;PMS5003;63427;49.654;6.596;2024-02-21T21:31:18;9;9;
74880;PMS5003;63427;49.654;6.596;2024-02-21T21:33:43;6;6;
74880;PMS5003;63427;49.654;6.596;2024-02-21T21:36:09;17;17;
74880;PMS5003;63427;49.654;6.596;2024-02-21T21:38:34;5;5;
74880;PMS5003;63427;49.654;6.596;2024-02-21T21:41:00;7;7;
74880;PMS5003;63427;49.654;6.596;2024-02-21T21:43:26;7;7;
74880;PMS5003;63427;49.654;6.596;2024-02-21T21:45:51;7;7;
74880;PMS5003;63427;49.654;6.596;2024-02-21T21:48:17;6;6;
74880;PMS5003;63427;49.654;6.596;2024-02-21T21:50:43;7;7;
74880;PMS5003;63427;49.654;6.596;2024-02-21T21:53:08;9;8;
74880;PMS5003;63427;49.654;6.596;2024-02-21T21:55:34;6;6;
74880;PMS5003;63427;49.654;6.596;2024-02-21T21:57:59;10;9;
74880;PMS5003;63427;49.654;6.596;2024-02-21T22:00:25;6;6;
74880;PMS5003;63427;49.654;6.596;2024-02-21T22:02:51;5;5;
74880;PMS5003;63427;49.654;6.596;2024-02-21T22:05:16;5;5;
74880;PMS5003;63427;49.654;6.596;2024-02-21T22:07:42;7;7;
74880;PMS5003;63427;49.654;6.596;2024-02-21T22:10:08;5;5;
74880;PMS5003;63427;49.654;6.596;2024-02-21T22:12:33;6;5;
74880;PMS5003;63427;49.654;6.596;2024-02-21T22:14:58;6;6;
74880;PMS5003;63427;49.654;6.596;2024-02-21T22:17:24;6;5;
74880;PMS5003;63427;49.654;6.596;2024-02-21T22:19:50;5;5;
74880;PMS5003;63427;49.654;6.596;2024-02-21T22:22:15;5;5;
74880;PMS5003;63427;49.654;6.596;2024-02-21T22:24:41;4;4;
74880;PMS5003;63427;49.654;6.596;2024-02-21T22:27:07;3;3;
74880;PMS5003;63427;49.654;6.596;2024-02-21T22:29:33;5;5;
74880;PMS5003;63427;49.654;6.596;2024-02-21T22:31:58;3;3;
74880;PMS5003;63427;49.654;6.596;2024-02-21T22:34:24;5;5;
74880;PMS5003;63427;49.654;6.596;2024-02-21T22:36:49;6;6;
74880;PMS5003;63427;49.654;6.596;2024-02-21T22:39:15;4;3;
74880;PMS5003;63427;49.654;6.596;2024-02-21T22:44:06;4;4;
74880;PMS5003;63427;49.654;6.596;2024-02-21T22:46:32;3;3;
74880;PMS5003;63427;49.654;6.596;2024-02-21T22:48:57;4;4;
74880;PMS5003;63427;49.654;6.596;2024-02-21T22:51:23;4;4;
74880;PMS5003;63427;49.654;6.596;2024-02-21T22:53:48;4;4;
74880;PMS5003;63427;49.654;6.596;2024-02-21T22:56:14;2;2;
74880;PMS5003;63427;49.654;6.596;2024-02-21T22:58:40;5;5;
74880;PMS5003;63427;49.654;6.596;2024-02-21T23:01:11;3;3;
74880;PMS5003;63427;49.654;6.596;2024-02-21T23:03:31;4;4;
74880;PMS5003;63427;49.654;6.596;2024-02-21T23:05:57;4;4;
74880;PMS5003;63427;49.654;6.596;2024-02-21T23:08:22;4;4;
74880;PMS5003;63427;49.654;6.596;2024-02-21T23:10:48;4;4;
74880;PMS5003;63427;49.654;6.596;2024-02-21T23:13:13;4;4;
74880;PMS5003;63427;49.654;6.596;2024-02-21T23:15:39;3;2;
74880;PMS5003;63427;49.654;6.596;2024-02-21T23:18:05;3;3;
74880;PMS5003;63427;49.654;6.596;2024-02-21T23:20:30;4;4;
74880;PMS5003;63427;49.654;6.596;2024-02-21T23:22:56;3;2;
74880;PMS5003;63427;49.654;6.596;2024-02-21T23:25:22;5;4;
74880;PMS5003;63427;49.654;6.596;2024-02-21T23:27:47;3;3;
74880;PMS5003;63427;49.654;6.596;2024-02-21T23:30:13;4;4;
74880;PMS5003;63427;49.654;6.596;2024-02-21T23:32:39;2;2;
74880;PMS5003;63427;49.654;6.596;2024-02-21T23:35:05;2;2;
74880;PMS5003;63427;49.654;6.596;2024-02-21T23:37:30;3;3;
74880;PMS5003;63427;49.654;6.596;2024-02-21T23:39:55;4;3;
74880;PMS5003;63427;49.654;6.596;2024-02-21T23:42:21;2;2;
74880;PMS5003;63427;49.654;6.596;2024-02-21T23:44:46;2;2;
74880;PMS5003;63427;49.654;6.596;2024-02-21T23:47:12;3;3;
74880;PMS5003;63427;49.654;6.596;2024-02-21T23:49:38;3;2;
74880;PMS5003;63427;49.654;6.596;2024-02-21T23:52:04;2;2;
74880;PMS5003;63427;49.654;6.596;2024-02-21T23:54:29;2;2;
74880;PMS5003;63427;49.654;6.596;2024-02-21T23:56:54;3;3;
74880;PMS5003;63427;49.654;6.596;2024-02-21T23:59:20;2;2;
